Time;durP1;ratioP1;P1;durP2;ratioP2;P2;SDS_P1;SDS_P2;PMS_P1;PMS_P2;Temp;Humidity;BMP_temperature;BMP_pressure;BME280_temperature;BME280_humidity;BME280_pressure;Samples;Min_cycle;Max_cycle;Signal;HPM_P1;HPM_P2
2022/04/29 06:19:17;;;;;;;9.35;3.10;;;;;;;15.44;36.96;99617.19;4499391;31;191479;-93
2022/04/29 06:21:43;;;;;;;10.80;3.22;;;;;;;16.21;36.22;99613.22;4493303;32;20463;-83
2022/04/29 06:24:08;;;;;;;8.65;3.40;;;;;;;17.04;33.65;99607.75;4497878;31;20105;-82
2022/04/29 06:26:34;;;;;;;9.23;3.35;;;;;;;17.66;33.08;99599.00;4497881;32;20360;-83
2022/04/29 06:29:00;;;;;;;7.95;3.22;;;;;;;18.04;32.73;99610.56;4497881;31;20459;-83
2022/04/29 06:31:25;;;;;;;8.20;3.00;;;;;;;18.33;31.96;99604.91;4497896;32;20110;-82
2022/04/29 06:33:51;;;;;;;9.27;3.30;;;;;;;18.58;31.25;99607.50;4498166;32;20108;-81
2022/04/29 06:36:17;;;;;;;10.25;3.50;;;;;;;18.69;30.30;99609.34;4494217;31;20103;-82
2022/04/29 06:38:42;;;;;;;8.73;2.92;;;;;;;18.82;30.51;99604.81;4489356;32;20138;-82
2022/04/29 06:41:08;;;;;;;8.23;2.85;;;;;;;19.05;30.85;99603.06;4488541;32;20471;-83
2022/04/29 06:43:33;;;;;;;9.07;2.87;;;;;;;19.17;30.52;99609.28;4480529;32;20085;-83
2022/04/29 06:46:01;;;;;;;9.10;3.20;;;;;;;19.42;30.39;99596.69;4485190;32;20099;-83
2022/04/29 06:48:27;;;;;;;9.05;3.40;;;;;;;19.52;29.74;99597.66;4492934;32;20096;-82
2022/04/29 06:50:53;;;;;;;10.75;3.28;;;;;;;19.64;29.06;99602.03;4490476;31;20110;-83
2022/04/29 06:53:18;;;;;;;8.65;2.90;;;;;;;19.62;28.30;99598.66;4478369;32;20171;-82
2022/04/29 06:55:44;;;;;;;7.87;3.00;;;;;;;19.72;29.29;99596.13;4481727;32;20419;-82
2022/04/29 06:58:09;;;;;;;8.68;3.15;;;;;;;19.58;28.04;99610.53;4483251;32;20141;-83
2022/04/29 07:00:36;;;;;;;8.57;3.05;;;;;;;19.55;28.25;99600.09;4498848;31;20154;-86
2022/04/29 07:03:02;;;;;;;10.90;3.20;;;;;;;19.62;29.38;99608.47;4484100;31;20115;-86
2022/04/29 07:05:30;;;;;;;9.60;2.95;;;;;;;19.61;29.36;99602.28;4498593;32;20080;-86
2022/04/29 07:07:57;;;;;;;8.13;2.80;;;;;;;19.60;30.12;99610.41;4484393;32;20130;-85
2022/04/29 07:10:23;;;;;;;9.80;2.95;;;;;;;19.60;29.55;99599.72;4498805;32;20092;-88
2022/04/29 07:12:48;;;;;;;9.50;3.08;;;;;;;19.74;30.45;99601.31;4497433;32;20118;-90
2022/04/29 07:15:14;;;;;;;9.57;3.17;;;;;;;19.89;30.43;99600.09;4496212;31;20116;-86
2022/04/29 07:17:41;;;;;;;8.07;2.87;;;;;;;19.83;29.21;99605.94;4496896;31;20123;-87
2022/04/29 07:20:07;;;;;;;8.35;3.30;;;;;;;19.97;29.00;99607.50;4483470;32;20156;-89
2022/04/29 07:22:33;;;;;;;9.00;2.90;;;;;;;20.15;28.75;99608.69;4496980;31;20154;-89
2022/04/29 07:24:59;;;;;;;9.05;3.50;;;;;;;20.17;28.40;99603.22;4498331;31;20145;-89
2022/04/29 07:27:25;;;;;;;10.25;3.25;;;;;;;20.04;27.68;99600.69;4498271;31;20119;-89
2022/04/29 07:29:51;;;;;;;9.98;3.37;;;;;;;20.08;28.95;99596.78;4491668;31;20096;-89
2022/04/29 07:32:16;;;;;;;8.10;2.75;;;;;;;20.08;28.43;99612.84;4488012;32;20072;-89
2022/04/29 07:42:54;;;;;;;8.65;3.05;;;;;;;20.28;27.86;99605.00;4464832;32;20144;-89
2022/04/29 07:45:19;;;;;;;8.43;2.62;;;;;;;20.11;28.63;99599.22;4487658;32;20408;-88
2022/04/29 07:47:45;;;;;;;7.53;2.80;;;;;;;20.10;28.90;99599.34;4488294;32;20115;-91
2022/04/29 07:50:12;;;;;;;9.23;3.08;;;;;;;20.08;28.04;99607.50;4474024;32;20096;-93
2022/04/29 07:52:38;;;;;;;8.57;3.20;;;;;;;19.83;27.24;99598.75;4484305;32;20084;-92
2022/04/29 07:55:04;;;;;;;8.40;3.05;;;;;;;20.00;27.81;99593.91;4457816;32;20164;-89
2022/04/29 07:57:29;;;;;;;9.68;3.08;;;;;;;20.04;28.68;99593.50;4471506;32;20120;-87
2022/04/29 07:59:54;;;;;;;7.93;2.75;;;;;;;20.21;27.40;99610.88;4471463;32;20112;-87
2022/04/29 08:02:20;;;;;;;9.80;2.80;;;;;;;20.20;27.41;99601.16;4472640;32;20472;-90
2022/04/29 08:04:45;;;;;;;8.10;2.70;;;;;;;19.91;26.94;99597.31;4472254;32;20119;-81
2022/04/29 08:07:13;;;;;;;8.45;3.10;;;;;;;19.77;27.63;99593.06;4473368;32;20388;-93
2022/04/29 08:09:39;;;;;;;9.30;3.05;;;;;;;20.12;27.95;99602.75;4462343;32;20118;-92
2022/04/29 08:12:05;;;;;;;8.50;2.83;;;;;;;19.96;26.57;99612.00;4476589;32;20053;-94
2022/04/29 08:14:31;;;;;;;7.40;2.47;;;;;;;20.01;25.38;99600.94;4465716;32;20092;-93
2022/04/29 08:16:57;;;;;;;7.43;2.90;;;;;;;20.08;25.80;99595.94;4472121;32;20741;-94
2022/04/29 08:19:23;;;;;;;8.38;2.80;;;;;;;20.11;25.29;99601.03;4455305;32;20123;-93
2022/04/29 08:21:49;;;;;;;7.87;2.70;;;;;;;20.20;25.15;99592.25;4487598;32;20088;-95
2022/04/29 08:24:15;;;;;;;8.02;2.80;;;;;;;20.28;25.04;99603.22;4493261;32;20148;-95
2022/04/29 08:26:40;;;;;;;9.35;2.65;;;;;;;20.22;26.32;99591.19;4727868;26;20096;-95
2022/04/29 08:29:06;;;;;;;8.45;3.30;;;;;;;20.22;25.77;99579.59;4723568;26;20073;-86
2022/04/29 08:31:31;;;;;;;9.10;3.30;;;;;;;20.32;25.77;99579.69;4466584;32;20142;-84
2022/04/29 08:33:56;;;;;;;10.10;3.22;;;;;;;20.34;26.20;99585.78;4426597;32;20188;-84
2022/04/29 08:36:22;;;;;;;8.63;3.40;;;;;;;20.50;26.75;99590.72;4440556;32;20136;-84
2022/04/29 08:38:47;;;;;;;8.02;3.03;;;;;;;20.43;26.09;99585.88;4438906;32;20098;-83
2022/04/29 08:41:18;;;;;;;9.77;3.30;;;;;;;20.48;26.44;99590.84;4439200;32;20089;-84
2022/04/29 08:43:44;;;;;;;7.87;3.05;;;;;;;20.56;26.50;99576.84;4438784;32;20392;-84
2022/04/29 08:46:10;;;;;;;11.43;3.37;;;;;;;20.58;26.69;99581.06;4445171;32;20094;-94
2022/04/29 08:48:36;;;;;;;8.20;2.97;;;;;;;20.58;26.71;99575.72;4475739;32;20096;-92
2022/04/29 08:51:02;;;;;;;10.38;3.42;;;;;;;20.55;26.87;99578.66;4445039;32;20093;-91
2022/04/29 08:53:27;;;;;;;8.10;3.08;;;;;;;20.65;25.51;99580.59;4440324;32;20403;-95
2022/04/29 08:58:38;;;;;;;9.77;3.22;;;;;;;20.74;26.74;99579.81;4446834;32;20567;-93
2022/04/29 09:01:13;;;;;;;9.73;3.40;;;;;;;20.74;24.98;99574.47;4426442;32;20166;-93
2022/04/29 09:03:42;;;;;;;11.25;3.17;;;;;;;20.67;25.42;99565.22;4461548;32;20084;-92
2022/04/29 09:06:07;;;;;;;10.18;3.50;;;;;;;20.85;25.86;99563.69;4448156;32;20113;-94
2022/04/29 09:08:41;;;;;;;8.63;2.92;;;;;;;20.85;25.86;99561.00;4438718;32;20105;-92
2022/04/29 09:11:07;;;;;;;9.25;3.00;;;;;;;20.90;26.04;99558.81;4440508;32;20085;-94
2022/04/29 09:13:37;;;;;;;7.45;2.70;;;;;;;20.89;25.69;99558.94;4438955;32;20369;-95
2022/04/29 09:16:06;;;;;;;10.73;3.50;;;;;;;20.81;26.08;99554.22;4438930;32;20098;-95
2022/04/29 09:18:49;;;;;;;7.90;2.87;;;;;;;20.59;24.42;99564.06;4439918;32;20543;-94
2022/04/29 09:21:20;;;;;;;8.07;3.20;;;;;;;20.73;25.47;99546.84;4439841;32;20097;-93
2022/04/29 09:23:49;;;;;;;8.15;2.87;;;;;;;20.74;26.59;99536.97;4439404;32;20124;-91
2022/04/29 09:26:22;;;;;;;6.70;2.55;;;;;;;20.69;24.60;99553.44;4440333;32;20102;-92
2022/04/29 09:28:49;;;;;;;6.85;2.70;;;;;;;20.38;25.08;99550.63;4441618;32;20127;-84
2022/04/29 09:31:15;;;;;;;8.32;2.62;;;;;;;20.20;23.19;99557.47;4460776;32;20085;-94
2022/04/29 09:33:41;;;;;;;7.15;2.55;;;;;;;20.32;22.54;99548.47;4470677;32;20119;-93
2022/04/29 09:36:07;;;;;;;8.63;2.90;;;;;;;20.52;23.08;99543.28;4457220;32;20451;-93
2022/04/29 09:41:23;;;;;;;6.80;2.62;;;;;;;20.73;23.50;99543.31;4455548;32;20169;-95
2022/04/29 09:43:49;;;;;;;7.70;2.95;;;;;;;20.77;23.15;99542.91;4441068;32;20089;-94
2022/04/29 09:46:22;;;;;;;8.30;2.83;;;;;;;20.78;23.56;99535.72;4454917;32;20097;-96
2022/04/29 09:48:58;;;;;;;9.32;2.53;;;;;;;20.71;23.18;99545.28;4457096;32;20485;-91
2022/04/29 09:51:52;;;;;;;7.82;2.55;;;;;;;20.67;23.07;99544.69;4470569;32;20601;-92
2022/04/29 09:54:25;;;;;;;8.90;3.00;;;;;;;20.66;23.78;99542.13;4443587;32;20149;-94
2022/04/29 09:57:16;;;;;;;8.45;2.87;;;;;;;20.67;23.18;99536.66;4439771;32;20147;-96
2022/04/29 09:59:42;;;;;;;6.10;2.30;;;;;;;20.66;23.99;99539.47;4445022;32;20123;-96
2022/04/29 10:02:10;;;;;;;7.62;2.47;;;;;;;20.74;22.86;99539.66;4444427;32;20111;-93
2022/04/29 10:04:37;;;;;;;8.93;2.50;;;;;;;20.88;23.45;99533.97;4471041;32;20107;-89
2022/04/29 10:07:04;;;;;;;7.32;2.80;;;;;;;20.92;23.11;99527.38;4470725;32;20100;-94
2022/04/29 10:09:32;;;;;;;8.38;3.17;;;;;;;21.06;23.29;99525.34;4470547;32;20581;-94
2022/04/29 10:11:59;;;;;;;7.28;2.50;;;;;;;21.14;23.24;99529.03;4449590;32;20840;-90
2022/04/29 10:14:27;;;;;;;7.62;2.70;;;;;;;21.33;23.73;99522.09;4438510;32;20207;-89
2022/04/29 10:22:25;;;;;;;7.20;2.70;;;;;;;21.47;22.69;99520.91;4441573;32;20208;-96
2022/04/29 10:24:51;;;;;;;9.20;2.95;;;;;;;21.43;22.88;99508.72;4448616;32;20091;-96
2022/04/29 10:27:18;;;;;;;7.55;2.72;;;;;;;21.70;22.02;99502.78;4443438;32;20393;-95
2022/04/29 10:29:44;;;;;;;6.80;2.58;;;;;;;21.71;22.16;99502.62;4456849;32;20472;-95
2022/04/29 10:32:10;;;;;;;7.43;2.42;;;;;;;21.75;22.66;99503.19;4445673;32;20077;-96
2022/04/29 10:34:36;;;;;;;7.03;2.50;;;;;;;21.92;23.25;99501.66;4443849;32;20462;-96
2022/04/29 10:37:10;;;;;;;8.25;2.47;;;;;;;21.89;20.92;99502.81;4440569;32;20141;-94
2022/04/29 10:39:35;;;;;;;7.60;2.80;;;;;;;21.92;21.73;99497.19;4456016;32;20080;-96
2022/04/29 10:42:03;;;;;;;7.78;2.72;;;;;;;21.99;21.55;99497.44;4443745;32;20115;-96
2022/04/29 10:44:29;;;;;;;;;;;;;;;22.12;22.05;99498.03;4443557;32;20089;-92
2022/04/29 10:46:54;;;;;;;7.70;2.47;;;;;;;22.28;22.10;99488.59;4438908;32;20301;-93
2022/04/29 10:49:28;;;;;;;7.22;2.97;;;;;;;22.38;22.65;99487.59;4444342;32;20168;-94
2022/04/29 10:52:03;;;;;;;5.85;2.05;;;;;;;22.69;23.09;99475.84;4472571;32;20049;-96
2022/04/29 10:54:34;;;;;;;7.93;2.35;;;;;;;22.90;21.74;99479.16;4443318;32;20169;-95
2022/04/29 10:57:04;;;;;;;6.40;2.37;;;;;;;22.83;20.00;99474.53;4440780;32;20472;-95
2022/04/29 10:59:50;;;;;;;7.97;2.50;;;;;;;22.77;19.94;99471.44;4439427;32;20082;-95
2022/04/29 11:02:29;;;;;;;9.27;3.30;;;;;;;22.87;20.56;99489.34;4443919;32;20086;-93
2022/04/29 11:04:56;;;;;;;7.62;2.67;;;;;;;22.95;20.91;99474.22;4440699;32;20112;-94
2022/04/29 11:07:35;;;;;;;7.37;2.72;;;;;;;23.15;20.87;99466.94;4445823;32;20117;-96
2022/04/29 11:10:02;;;;;;;6.93;2.60;;;;;;;23.30;20.34;99464.62;4443574;32;20105;-95
2022/04/29 11:12:39;;;;;;;9.38;2.70;;;;;;;23.50;19.92;99453.78;4446083;32;20085;-94
2022/04/29 11:15:15;;;;;;;8.07;2.87;;;;;;;23.24;20.64;99459.84;4462130;32;20385;-82
2022/04/29 11:17:41;;;;;;;7.53;2.62;;;;;;;22.65;21.70;99477.13;4471662;32;20100;-83
2022/04/29 11:20:13;;;;;;;5.95;2.33;;;;;;;22.58;22.85;99468.81;4458155;32;20160;-83
2022/04/29 11:25:23;;;;;;;9.40;3.00;;;;;;;22.54;23.33;99467.37;4448559;32;20104;-84
2022/04/29 11:27:50;;;;;;;8.65;3.20;;;;;;;22.58;23.95;99466.97;4449535;32;20434;-83
2022/04/29 11:30:15;;;;;;;7.85;3.12;;;;;;;22.41;23.92;99478.44;4440734;32;20097;-83
2022/04/29 11:32:42;;;;;;;7.87;2.90;;;;;;;22.18;22.90;99465.25;4441361;32;20108;-85
2022/04/29 11:35:08;;;;;;;8.40;3.03;;;;;;;22.29;23.12;99463.44;4440882;32;20115;-83
2022/04/29 11:37:34;;;;;;;7.62;2.45;;;;;;;22.37;22.81;99458.22;4440531;32;20429;-84
2022/04/29 11:40:04;;;;;;;8.68;2.80;;;;;;;22.34;23.23;99456.66;4440507;32;20172;-83
2022/04/29 11:42:30;;;;;;;7.90;2.58;;;;;;;22.25;21.29;99454.84;4439568;32;20112;-83
2022/04/29 11:45:11;;;;;;;8.60;2.85;;;;;;;22.24;21.95;99445.06;4439387;32;20086;-84
2022/04/29 11:47:37;;;;;;;9.63;2.70;;;;;;;22.03;22.51;99447.06;4440677;32;20089;-86
2022/04/29 11:50:04;;;;;;;6.75;2.53;;;;;;;22.09;22.14;99450.00;4439226;32;20124;-84
2022/04/29 11:52:31;;;;;;;7.07;2.62;;;;;;;21.85;22.15;99439.69;4440413;32;20085;-84
2022/04/29 11:55:01;;;;;;;7.22;2.50;;;;;;;21.94;23.24;99435.31;4456276;32;20115;-87
2022/04/29 11:57:31;;;;;;;6.82;2.65;;;;;;;22.15;22.58;99430.66;4460087;32;20161;-84
2022/04/29 11:59:58;;;;;;;6.95;2.70;;;;;;;22.28;22.05;99421.50;4458141;32;20108;-83
2022/04/29 12:02:24;;;;;;;5.95;2.42;;;;;;;22.45;21.34;99411.88;4455022;32;20115;-84
2022/04/29 12:04:57;;;;;;;9.18;2.50;;;;;;;22.54;21.43;99411.84;4454044;32;20081;-85
2022/04/29 12:07:24;;;;;;;6.93;2.55;;;;;;;22.53;21.49;99407.47;4450803;32;20112;-84
2022/04/29 12:09:50;;;;;;;10.48;3.20;;;;;;;22.56;22.40;99412.56;4445207;32;20101;-84
2022/04/29 12:12:23;;;;;;;9.02;3.00;;;;;;;22.34;22.98;99410.19;4461065;32;20897;-84
2022/04/29 12:14:48;;;;;;;7.32;2.60;;;;;;;21.84;24.37;99407.66;4440864;32;20389;-83
2022/04/29 12:17:16;;;;;;;8.45;2.85;;;;;;;22.04;23.61;99411.16;4455325;32;20089;-84
2022/04/29 12:19:41;;;;;;;7.45;2.80;;;;;;;22.14;24.18;99412.03;4441294;32;20175;-85
2022/04/29 12:22:09;;;;;;;7.18;2.60;;;;;;;21.94;23.52;99406.69;4455679;32;20357;-86
2022/04/29 12:24:42;;;;;;;7.85;2.72;;;;;;;22.18;23.95;99411.59;4442055;32;20810;-83
2022/04/29 12:27:09;;;;;;;9.55;2.75;;;;;;;22.06;22.88;99407.37;4443042;32;20422;-80
2022/04/29 12:29:39;;;;;;;7.05;2.42;;;;;;;21.93;21.87;99412.16;4455661;32;20101;-83
2022/04/29 12:35:10;;;;;;;7.90;2.70;;;;;;;22.18;20.65;99406.22;4443099;32;20384;-83
2022/04/29 12:37:36;;;;;;;8.30;2.55;;;;;;;22.16;20.88;99402.84;4455352;32;20089;-83
2022/04/29 12:40:04;;;;;;;5.97;2.30;;;;;;;22.37;20.68;99391.97;4441527;32;20097;-83
2022/04/29 12:42:29;;;;;;;;;;;;;;;22.64;21.12;99389.47;4432565;32;20490;-81
2022/04/29 12:47:42;;;;;;;6.68;2.60;;;;;;;23.00;21.52;99393.16;4470018;32;20112;-82
2022/04/29 12:50:28;;;;;;;7.28;2.90;;;;;;;23.01;20.40;99385.97;4440828;32;20113;-81
2022/04/29 12:53:00;;;;;;;7.00;2.72;;;;;;;23.03;20.86;99373.25;4428173;32;20093;-81
2022/04/29 12:55:26;;;;;;;8.07;2.87;;;;;;;22.89;21.29;99370.03;4454785;32;20124;-81
2022/04/29 12:57:51;;;;;;;7.55;2.87;;;;;;;23.11;21.79;99359.91;4454644;32;20214;-82
2022/04/29 13:00:24;;;;;;;8.27;2.87;;;;;;;23.05;20.61;99355.97;4454768;32;20494;-82
2022/04/29 13:03:21;;;;;;;6.95;2.70;;;;;;;23.03;21.50;99374.09;4455490;32;20161;-80
2022/04/29 13:05:47;;;;;;;8.05;2.83;;;;;;;22.59;21.65;99360.37;4425562;32;20073;-81
2022/04/29 13:08:13;;;;;;;7.80;2.55;;;;;;;22.35;22.64;99371.62;4440848;32;20384;-83
2022/04/29 13:10:46;;;;;;;10.27;2.90;;;;;;;22.40;21.97;99363.13;4441435;32;20155;-84
2022/04/29 13:13:13;;;;;;;7.85;2.62;;;;;;;22.32;21.81;99369.22;4441085;32;20164;-82
2022/04/29 13:15:41;;;;;;;9.83;3.10;;;;;;;22.30;22.07;99361.31;4440454;32;20084;-82
2022/04/29 13:18:07;;;;;;;8.32;2.92;;;;;;;22.36;21.80;99349.16;4454432;32;20452;-82
2022/04/29 13:20:32;;;;;;;7.75;2.92;;;;;;;22.42;22.56;99356.62;4454257;32;20123;-81
2022/04/29 13:22:58;;;;;;;6.55;2.28;;;;;;;22.47;22.26;99348.16;4440230;32;20085;-82
2022/04/29 13:25:27;;;;;;;6.72;2.28;;;;;;;22.41;21.19;99346.88;4455098;32;20084;-80
2022/04/29 13:27:52;;;;;;;7.00;2.90;;;;;;;22.37;20.80;99346.31;4454689;32;20094;-82
2022/04/29 13:30:18;;;;;;;5.78;2.35;;;;;;;22.22;20.69;99342.38;4437637;32;20103;-82
2022/04/29 13:32:44;;;;;;;9.40;2.42;;;;;;;22.18;20.45;99352.56;4438128;32;20089;-82
2022/04/29 13:35:09;;;;;;;10.32;2.85;;;;;;;22.14;20.82;99332.38;4439153;32;20095;-82
2022/04/29 13:37:36;;;;;;;6.68;2.40;;;;;;;22.23;21.28;99330.63;4439619;32;20180;-81
2022/04/29 13:40:02;;;;;;;7.80;2.60;;;;;;;22.54;20.51;99336.66;4424569;32;20127;-81
2022/04/29 13:42:29;;;;;;;7.53;2.67;;;;;;;22.57;20.29;99324.78;4439246;32;20424;-81
2022/04/29 13:45:01;;;;;;;7.95;2.78;;;;;;;22.50;20.12;99332.59;4437882;32;20081;-81
2022/04/29 13:47:27;;;;;;;7.70;2.42;;;;;;;22.35;19.72;99334.06;4439507;32;20082;-82
2022/04/29 13:49:53;;;;;;;6.32;2.50;;;;;;;22.59;19.71;99322.78;4437975;32;20175;-83
2022/04/29 13:55:03;;;;;;;8.43;2.62;;;;;;;22.95;19.95;99317.53;4439329;32;20506;-82
2022/04/29 13:57:28;;;;;;;7.72;2.55;;;;;;;23.13;20.11;99314.91;4411995;32;20097;-83
2022/04/29 13:59:53;;;;;;;6.40;2.58;;;;;;;23.01;19.95;99316.09;4424780;32;20117;-81
2022/04/29 14:02:19;;;;;;;8.77;2.75;;;;;;;22.72;20.37;99307.19;4438447;32;20115;-82
2022/04/29 14:04:44;;;;;;;6.87;2.65;;;;;;;22.85;20.16;99305.97;4438452;32;20078;-83
2022/04/29 14:07:09;;;;;;;8.07;2.55;;;;;;;22.76;19.33;99303.19;4438513;32;20112;-82
2022/04/29 14:09:35;;;;;;;6.53;2.62;;;;;;;22.68;20.17;99310.34;4438292;32;20131;-81
2022/04/29 14:12:01;;;;;;;8.02;2.83;;;;;;;22.50;20.90;99311.12;4438560;32;20143;-81
2022/04/29 14:14:26;;;;;;;7.78;2.40;;;;;;;22.56;20.33;99302.47;4438440;32;20160;-82
2022/04/29 14:16:52;;;;;;;6.45;2.55;;;;;;;22.51;20.65;99309.25;4424971;32;20156;-83
2022/04/29 14:19:18;;;;;;;7.80;2.80;;;;;;;22.51;20.42;99307.41;4439318;32;20111;-81
2022/04/29 14:21:43;;;;;;;7.62;2.53;;;;;;;22.47;20.31;99306.03;4438976;32;20085;-82
2022/04/29 14:24:09;;;;;;;6.78;2.60;;;;;;;22.34;20.38;99311.72;4424485;32;20474;-82
2022/04/29 14:26:35;;;;;;;7.90;2.78;;;;;;;21.97;20.48;99312.47;4424941;32;20101;-82
2022/04/29 14:29:04;;;;;;;6.72;2.60;;;;;;;21.98;20.88;99308.81;4438554;32;20453;-82
2022/04/29 14:31:30;;;;;;;8.10;2.70;;;;;;;21.87;20.71;99305.44;4411430;32;20140;-82
2022/04/29 14:33:59;;;;;;;7.28;2.65;;;;;;;21.90;20.89;99305.97;4424258;32;20426;-83
2022/04/29 14:36:27;;;;;;;7.62;2.47;;;;;;;21.93;20.71;99311.06;4424783;32;20176;-82
2022/04/29 14:38:53;;;;;;;8.30;2.80;;;;;;;21.89;21.12;99309.69;4438943;32;20089;-82
2022/04/29 14:41:19;;;;;;;7.90;2.60;;;;;;;21.79;20.39;99298.97;4426409;32;20092;-81
2022/04/29 14:43:45;;;;;;;6.22;2.20;;;;;;;21.95;21.03;99303.72;4426625;32;20136;-82
2022/04/29 14:46:10;;;;;;;7.72;2.80;;;;;;;21.98;21.42;99302.59;4439942;32;20129;-83
2022/04/29 14:48:38;;;;;;;7.45;2.65;;;;;;;21.95;21.16;99297.53;4441175;32;20124;-83
2022/04/29 14:51:04;;;;;;;6.75;2.47;;;;;;;21.51;21.88;99302.50;4427664;32;20089;-83
2022/04/29 14:53:31;;;;;;;9.88;2.33;;;;;;;21.64;21.95;99294.19;4427437;32;20111;-83
2022/04/29 14:55:57;;;;;;;6.47;2.22;;;;;;;21.78;22.28;99291.87;4441076;32;20089;-82
2022/04/29 14:58:23;;;;;;;7.65;2.58;;;;;;;21.80;21.99;99286.38;4441226;32;20123;-83
2022/04/29 15:00:49;;;;;;;6.95;2.60;;;;;;;21.83;21.36;99278.06;4427444;32;20452;-83
2022/04/29 15:03:14;;;;;;;8.18;2.50;;;;;;;21.94;20.76;99282.41;4441257;32;20077;-84
2022/04/29 15:05:42;;;;;;;7.43;2.45;;;;;;;21.91;21.08;99275.50;4427267;32;20110;-83
2022/04/29 15:08:08;;;;;;;7.12;2.33;;;;;;;22.04;21.07;99277.03;4441350;32;20200;-83
